Time;durP1;ratioP1;P1;durP2;ratioP2;P2;SDS_P1;SDS_P2;PMS_P1;PMS_P2;Temp;Humidity;BMP_temperature;BMP_pressure;BME280_temperature;BME280_humidity;BME280_pressure;Samples;Min_cycle;Max_cycle;Signal;HPM_P1;HPM_P2
2021/10/02 00:35:15;;;;;;;44.17;40.90;;;;;;;9.44;100.00;101146.47;1941133;74;33586;-69
2021/10/02 00:46:41;;;;;;;44.63;41.60;;;;;;;9.60;100.00;101125.46;2016600;71;32947;-70
2021/10/02 00:52:10;;;;;;;43.50;40.47;;;;;;;9.55;100.00;101125.98;1941108;74;33595;-69
2021/10/02 00:57:35;;;;;;;45.50;42.20;;;;;;;9.92;100.00;101132.23;1940909;74;32990;-71
2021/10/02 01:03:07;;;;;;;44.40;41.40;;;;;;;9.77;100.00;101135.49;1940963;74;33003;-71
2021/10/02 01:05:54;;;;;;;44.50;41.30;;;;;;;9.49;100.00;101143.73;1905024;75;26650;-71
2021/10/02 01:08:31;;;;;;;43.53;40.77;;;;;;;9.94;100.00;101146.64;1904922;75;26203;-71
2021/10/02 01:11:09;;;;;;;42.97;40.10;;;;;;;9.82;100.00;101145.22;1904538;75;26677;-71
2021/10/02 01:13:42;;;;;;;42.70;39.73;;;;;;;9.84;100.00;101146.61;1904944;75;26266;-69
2021/10/02 01:16:15;;;;;;;43.90;41.00;;;;;;;9.58;100.00;101144.88;1904653;75;26674;-69
2021/10/02 01:18:49;;;;;;;44.40;41.50;;;;;;;9.82;100.00;101141.89;1904851;75;26660;-69
2021/10/02 01:21:36;;;;;;;43.00;40.20;;;;;;;9.78;100.00;101129.68;1904813;75;26815;-69
2021/10/02 01:24:11;;;;;;;43.37;40.37;;;;;;;10.01;100.00;101119.45;1903679;75;26215;-69
2021/10/02 01:29:50;;;;;;;44.30;41.17;;;;;;;9.74;100.00;101109.69;1941157;74;33473;-72
2021/10/02 01:35:25;;;;;;;42.50;39.60;;;;;;;9.78;100.00;101105.27;1940877;74;32997;-69
2021/10/02 01:52:18;;;;;;;44.50;41.40;;;;;;;9.98;100.00;101075.61;1941018;74;32988;-71
2021/10/02 01:57:48;;;;;;;45.17;42.07;;;;;;;10.04;100.00;101062.03;1941043;74;33522;-70
2021/10/02 02:03:16;;;;;;;44.33;41.53;;;;;;;9.88;100.00;101048.42;1940780;74;32994;-70
2021/10/02 02:08:43;;;;;;;44.77;41.77;;;;;;;10.10;100.00;101056.48;1941003;74;33071;-73
2021/10/02 02:14:10;;;;;;;46.57;43.30;;;;;;;10.00;100.00;101047.05;1940989;74;32994;-71
2021/10/02 02:19:36;;;;;;;45.60;42.30;;;;;;;9.88;100.00;101042.88;1941045;74;33531;-72
2021/10/02 02:25:01;;;;;;;45.07;41.77;;;;;;;10.08;100.00;101027.61;1940889;74;33100;-69
2021/10/02 02:30:26;;;;;;;47.50;44.50;;;;;;;9.77;100.00;101015.66;1940896;74;33001;-73
2021/10/02 02:35:54;;;;;;;45.57;42.47;;;;;;;9.74;100.00;101005.67;1940899;74;33156;-69
2021/10/02 02:41:18;;;;;;;46.40;43.30;;;;;;;9.56;100.00;101006.48;1940911;74;33026;-70
2021/10/02 02:46:44;;;;;;;43.70;40.80;;;;;;;9.81;100.00;100992.35;1940863;74;33057;-69
2021/10/02 02:52:14;;;;;;;44.13;41.17;;;;;;;9.74;100.00;100979.32;1941113;74;33595;-71
2021/10/02 02:57:43;;;;;;;43.90;40.90;;;;;;;9.62;100.00;100962.13;1941029;74;33542;-69
2021/10/02 03:03:12;;;;;;;43.90;40.60;;;;;;;9.45;100.00;100963.22;1940880;74;33062;-69
2021/10/02 03:08:40;;;;;;;44.93;41.63;;;;;;;9.49;100.00;100951.86;1941084;74;33555;-73
2021/10/02 03:14:10;;;;;;;45.17;42.00;;;;;;;9.42;100.00;100947.11;1940870;74;33097;-69
2021/10/02 03:19:35;;;;;;;41.77;38.83;;;;;;;9.46;100.00;100956.55;1940844;74;33170;-69
2021/10/02 03:25:04;;;;;;;42.00;39.00;;;;;;;9.54;100.00;100939.36;1941105;74;33442;-69
2021/10/02 03:30:32;;;;;;;42.30;39.10;;;;;;;9.57;100.00;100919.97;1940830;74;32977;-69
2021/10/02 03:35:58;;;;;;;43.13;40.07;;;;;;;9.55;100.00;100916.08;1940876;74;33057;-70
2021/10/02 03:41:23;;;;;;;43.40;40.30;;;;;;;9.56;100.00;100927.45;1941085;74;33581;-71
2021/10/02 03:46:47;;;;;;;43.00;39.80;;;;;;;9.63;100.00;100927.16;1940809;74;33167;-69
2021/10/02 03:52:14;;;;;;;43.60;40.17;;;;;;;9.71;100.00;100911.93;1940994;74;32985;-70
2021/10/02 03:57:38;;;;;;;43.43;40.23;;;;;;;9.56;100.00;100891.95;1940906;74;33044;-69
2021/10/02 04:03:14;;;;;;;42.87;39.60;;;;;;;9.58;100.00;100885.00;1977733;72;33399;-71
2021/10/02 04:08:39;;;;;;;43.53;40.17;;;;;;;9.60;100.00;100863.94;1940979;74;33525;-71
2021/10/02 04:14:04;;;;;;;43.13;40.00;;;;;;;9.59;100.00;100865.05;1940858;74;33169;-72
2021/10/02 04:19:29;;;;;;;42.90;39.67;;;;;;;9.52;100.00;100845.09;1941071;74;33564;-71
2021/10/02 04:24:53;;;;;;;41.30;38.30;;;;;;;9.57;100.00;100837.61;1940901;74;32980;-73
2021/10/02 04:30:17;;;;;;;41.17;37.97;;;;;;;9.57;100.00;100822.36;1941080;74;33574;-71
2021/10/02 04:35:42;;;;;;;40.17;37.27;;;;;;;10.02;100.00;100824.73;1940951;74;32990;-70
2021/10/02 04:41:09;;;;;;;42.73;39.53;;;;;;;10.04;100.00;100816.98;1941095;74;32977;-69
2021/10/02 04:46:38;;;;;;;43.93;40.40;;;;;;;9.78;100.00;100802.34;1941008;74;33546;-69
2021/10/02 04:52:03;;;;;;;42.50;39.37;;;;;;;10.01;100.00;100809.23;1940927;74;33067;-71
2021/10/02 04:57:27;;;;;;;42.67;39.67;;;;;;;10.03;100.00;100791.17;1940963;74;33025;-70
2021/10/02 05:02:52;;;;;;;43.23;40.03;;;;;;;10.00;100.00;100795.91;1940884;74;33024;-72
2021/10/02 05:08:17;;;;;;;44.17;41.00;;;;;;;9.98;100.00;100779.25;1940985;74;33072;-71
2021/10/02 05:13:42;;;;;;;43.57;40.03;;;;;;;10.00;100.00;100765.94;1941180;74;33551;-72
2021/10/02 05:19:06;;;;;;;42.97;39.87;;;;;;;9.74;100.00;100755.48;1940869;74;33030;-69
2021/10/02 05:24:37;;;;;;;43.37;40.13;;;;;;;9.47;100.00;100768.30;1941083;74;33005;-70
2021/10/02 05:30:02;;;;;;;43.90;40.80;;;;;;;9.43;100.00;100753.88;1940946;74;32998;-71
2021/10/02 05:35:29;;;;;;;44.93;41.57;;;;;;;9.28;100.00;100738.68;1940905;74;33003;-72
2021/10/02 05:40:54;;;;;;;43.27;40.07;;;;;;;9.42;100.00;100733.64;1940903;74;33052;-72
2021/10/02 05:46:18;;;;;;;42.73;39.53;;;;;;;9.63;100.00;100708.07;1940975;74;33010;-71
2021/10/02 05:51:43;;;;;;;43.33;40.27;;;;;;;9.92;100.00;100702.16;1941110;74;33038;-74
2021/10/02 05:57:07;;;;;;;42.27;39.37;;;;;;;9.98;100.00;100691.29;1941080;74;32994;-71
2021/10/02 06:02:34;;;;;;;42.93;39.93;;;;;;;9.82;100.00;100670.29;1940969;74;32989;-70
2021/10/02 06:08:00;;;;;;;45.20;41.60;;;;;;;9.77;100.00;100659.22;1940967;74;32984;-71
2021/10/02 06:13:24;;;;;;;42.40;39.50;;;;;;;9.96;100.00;100651.08;1940845;74;32987;-70
2021/10/02 06:18:49;;;;;;;41.77;38.80;;;;;;;10.19;100.00;100645.41;1940650;74;33089;-73
2021/10/02 06:24:18;;;;;;;42.87;39.87;;;;;;;10.19;100.00;100634.30;1940657;74;32985;-71
2021/10/02 06:29:43;;;;;;;46.30;43.00;;;;;;;10.28;100.00;100622.30;1940757;74;32992;-71
2021/10/02 06:35:09;;;;;;;45.43;42.37;;;;;;;10.27;100.00;100617.06;1941124;74;33056;-70
2021/10/02 06:40:33;;;;;;;43.90;40.90;;;;;;;10.41;100.00;100617.48;1940952;74;33106;-73
2021/10/02 06:45:58;;;;;;;44.50;41.30;;;;;;;10.26;100.00;100616.78;1941051;74;33679;-70
2021/10/02 06:51:23;;;;;;;46.37;43.20;;;;;;;10.29;100.00;100612.03;1940884;74;33053;-72
2021/10/02 06:56:50;;;;;;;44.53;41.40;;;;;;;10.24;100.00;100559.33;1940933;74;32989;-73
2021/10/02 07:02:15;;;;;;;46.40;43.07;;;;;;;10.40;100.00;100584.45;1940999;74;33483;-70
2021/10/02 07:07:41;;;;;;;45.37;42.37;;;;;;;10.21;100.00;100576.02;1941082;74;33047;-70
2021/10/02 07:13:07;;;;;;;46.93;43.60;;;;;;;10.28;100.00;100550.69;1940804;74;33004;-69
2021/10/02 07:18:32;;;;;;;43.67;40.57;;;;;;;10.55;100.00;100548.23;1940836;74;32998;-69
2021/10/02 07:23:56;;;;;;;45.03;42.03;;;;;;;10.47;100.00;100524.70;1940882;74;33095;-69
2021/10/02 07:29:22;;;;;;;44.20;41.00;;;;;;;10.60;100.00;100511.25;1941043;74;33529;-71
2021/10/02 07:34:47;;;;;;;46.30;42.77;;;;;;;10.82;100.00;100514.34;1940801;74;33078;-72
2021/10/02 07:40:19;;;;;;;45.03;41.93;;;;;;;10.94;100.00;100487.80;1941010;74;33554;-71
2021/10/02 07:45:53;;;;;;;44.63;41.57;;;;;;;11.03;100.00;100474.07;1940901;74;33085;-72
2021/10/02 07:51:20;;;;;;;43.20;40.10;;;;;;;11.20;100.00;100454.11;1940845;74;33062;-70
2021/10/02 07:56:47;;;;;;;43.73;40.47;;;;;;;11.31;100.00;100443.93;1940837;74;32996;-71
2021/10/02 08:02:20;;;;;;;42.73;39.87;;;;;;;11.26;100.00;100444.00;1941222;74;33051;-70
2021/10/02 08:07:48;;;;;;;42.90;39.80;;;;;;;11.42;100.00;100450.98;1940929;74;33064;-71
2021/10/02 08:13:15;;;;;;;44.00;40.80;;;;;;;11.48;100.00;100442.01;1940872;74;33161;-69
2021/10/02 08:18:43;;;;;;;44.33;41.10;;;;;;;11.57;100.00;100406.83;1940886;74;33025;-70
2021/10/02 08:24:09;;;;;;;43.53;40.23;;;;;;;11.71;100.00;100394.37;1940924;74;33040;-69
2021/10/02 08:29:35;;;;;;;41.43;38.53;;;;;;;11.91;100.00;100382.08;1940853;74;33066;-69
2021/10/02 08:35:00;;;;;;;43.67;40.77;;;;;;;11.94;100.00;100362.01;1941058;74;33591;-70
2021/10/02 08:40:24;;;;;;;43.80;40.80;;;;;;;12.08;100.00;100354.48;1941055;74;33494;-69
2021/10/02 08:45:49;;;;;;;45.93;42.93;;;;;;;12.13;100.00;100338.52;1940840;74;33072;-70
2021/10/02 08:51:15;;;;;;;46.53;43.17;;;;;;;12.19;100.00;100329.51;1940891;74;32993;-72
2021/10/02 08:56:40;;;;;;;45.17;42.10;;;;;;;12.36;100.00;100316.36;1941072;74;33517;-71
2021/10/02 09:02:06;;;;;;;44.07;40.97;;;;;;;12.32;100.00;100309.20;1941009;74;33114;-75
2021/10/02 09:07:31;;;;;;;45.47;42.17;;;;;;;12.41;100.00;100293.38;1940874;74;33008;-71
2021/10/02 09:12:59;;;;;;;43.90;40.60;;;;;;;12.29;100.00;100268.02;1940965;74;33537;-70
2021/10/02 09:18:26;;;;;;;47.07;43.53;;;;;;;12.42;100.00;100259.39;1941091;74;33044;-78
2021/10/02 09:23:57;;;;;;;45.37;42.00;;;;;;;12.44;100.00;100254.34;1940899;74;32994;-75
2021/10/02 09:29:40;;;;;;;45.90;42.23;;;;;;;12.43;100.00;100231.23;1941121;74;33540;-71
2021/10/02 09:35:10;;;;;;;43.47;40.03;;;;;;;12.53;100.00;100218.48;1940938;74;32989;-75
2021/10/02 09:40:39;;;;;;;45.77;42.40;;;;;;;12.69;100.00;100203.05;1941113;74;33536;-77
2021/10/02 09:46:04;;;;;;;44.87;41.53;;;;;;;12.83;100.00;100200.22;1941054;74;33063;-74
2021/10/02 09:51:40;;;;;;;46.53;43.00;;;;;;;12.82;100.00;100186.59;1941154;74;33549;-71
2021/10/02 09:54:31;;;;;;;46.07;42.30;;;;;;;12.81;100.00;100188.55;1904940;75;26207;-74
2021/10/02 10:00:11;;;;;;;44.33;40.73;;;;;;;12.88;100.00;100142.13;1940902;74;33003;-75
2021/10/02 10:05:37;;;;;;;47.50;43.77;;;;;;;12.97;100.00;100131.27;1941149;74;33559;-73
2021/10/02 10:11:09;;;;;;;43.40;39.90;;;;;;;13.02;100.00;100098.25;1940979;74;32979;-71
2021/10/02 10:16:39;;;;;;;43.73;40.30;;;;;;;13.13;100.00;100082.38;1941341;74;32989;-76
2021/10/02 10:22:18;;;;;;;45.67;41.87;;;;;;;13.31;100.00;100049.78;1941042;74;33009;-76
2021/10/02 10:27:50;;;;;;;46.03;42.30;;;;;;;13.48;100.00;100028.09;1940925;74;32990;-71
2021/10/02 10:33:23;;;;;;;46.93;42.87;;;;;;;13.56;100.00;100014.76;1941349;74;33587;-75
2021/10/02 10:38:49;;;;;;;46.63;43.07;;;;;;;13.63;100.00;99986.61;1941088;74;33486;-71
2021/10/02 10:44:17;;;;;;;48.07;44.37;;;;;;;13.67;100.00;99966.67;1940923;74;32986;-76
2021/10/02 10:49:43;;;;;;;47.60;43.57;;;;;;;13.75;100.00;99951.64;1941103;74;32981;-76
2021/10/02 10:55:14;;;;;;;48.27;44.57;;;;;;;13.82;100.00;99943.61;1941380;74;33614;-75
2021/10/02 11:00:43;;;;;;;47.23;43.47;;;;;;;13.97;100.00;99929.97;1941020;74;33086;-75
2021/10/02 11:06:09;;;;;;;47.40;44.13;;;;;;;14.07;100.00;99907.87;1941083;74;32987;-76
2021/10/02 11:12:03;;;;;;;47.33;44.07;;;;;;;14.13;100.00;99882.21;1941297;74;33458;-74
2021/10/02 11:17:54;;;;;;;45.17;42.07;;;;;;;14.20;100.00;99865.53;1941106;74;33044;-74
2021/10/02 11:24:07;;;;;;;42.13;39.33;;;;;;;14.22;100.00;99832.48;1941066;74;33606;-76
2021/10/02 11:29:41;;;;;;;40.70;38.13;;;;;;;14.27;100.00;99808.56;1941126;74;33525;-76
2021/10/02 11:35:30;;;;;;;40.13;37.73;;;;;;;14.39;100.00;99787.75;1941320;74;33032;-76
2021/10/02 11:41:00;;;;;;;40.17;37.50;;;;;;;14.50;100.00;99755.50;1940959;74;32987;-76
2021/10/02 11:46:26;;;;;;;38.40;35.80;;;;;;;14.64;100.00;99744.04;1941112;74;33537;-79
2021/10/02 11:52:11;;;;;;;41.07;38.17;;;;;;;14.74;100.00;99723.52;1941227;74;32980;-78
2021/10/02 11:57:38;;;;;;;40.57;37.70;;;;;;;14.74;100.00;99707.31;1941200;74;33574;-75
2021/10/02 12:03:06;;;;;;;39.87;36.93;;;;;;;14.77;100.00;99687.87;1940995;74;32954;-71
2021/10/02 12:08:32;;;;;;;41.80;39.03;;;;;;;14.83;100.00;99657.17;1940909;74;33017;-73
2021/10/02 12:13:58;;;;;;;42.37;39.63;;;;;;;14.92;100.00;99634.15;1941245;74;32971;-78
2021/10/02 12:19:25;;;;;;;42.13;39.23;;;;;;;14.99;100.00;99627.41;1940948;74;33056;-75
2021/10/02 12:24:53;;;;;;;42.10;39.47;;;;;;;15.01;100.00;99604.13;1941435;74;32999;-76
2021/10/02 12:30:20;;;;;;;42.80;40.00;;;;;;;15.09;100.00;99583.39;1940926;74;33090;-70
2021/10/02 12:35:52;;;;;;;42.20;39.30;;;;;;;15.11;100.00;99558.67;1940897;74;33109;-71
2021/10/02 12:41:19;;;;;;;43.60;40.40;;;;;;;15.18;100.00;99534.59;1940890;74;32995;-77
2021/10/02 12:46:44;;;;;;;43.20;40.20;;;;;;;15.25;100.00;99513.02;1941376;74;33448;-79
2021/10/02 12:52:10;;;;;;;40.63;37.77;;;;;;;15.29;100.00;99485.40;1941332;74;32990;-76
2021/10/02 12:57:37;;;;;;;41.37;38.30;;;;;;;15.34;100.00;99442.39;1940872;74;33092;-77
2021/10/02 13:03:05;;;;;;;40.50;37.57;;;;;;;15.48;100.00;99447.86;1940941;74;33002;-73
2021/10/02 13:08:30;;;;;;;42.63;39.60;;;;;;;15.44;100.00;99435.74;1941106;74;33488;-73
2021/10/02 13:13:55;;;;;;;40.33;37.63;;;;;;;15.49;100.00;99423.46;1940901;74;33054;-75
2021/10/02 13:19:30;;;;;;;42.80;40.13;;;;;;;15.40;100.00;99410.22;1941157;74;33451;-75
2021/10/02 13:25:14;;;;;;;39.60;36.87;;;;;;;15.41;100.00;99390.25;1941088;74;33474;-73
2021/10/02 13:30:41;;;;;;;39.00;36.50;;;;;;;15.34;100.00;99367.67;1940861;74;32960;-73
2021/10/02 13:36:08;;;;;;;36.17;33.60;;;;;;;15.38;100.00;99364.39;1940919;74;33054;-72
2021/10/02 13:41:36;;;;;;;36.50;34.17;;;;;;;15.46;100.00;99343.84;1941051;74;33510;-72
2021/10/02 13:47:03;;;;;;;36.70;34.40;;;;;;;15.54;100.00;99319.71;1941072;74;33481;-72
2021/10/02 13:52:33;;;;;;;35.97;33.57;;;;;;;15.63;100.00;99287.38;1940954;74;33059;-73
2021/10/02 13:57:56;;;;;;;38.33;35.77;;;;;;;15.63;100.00;99260.20;1941091;74;33577;-73
2021/10/02 14:03:21;;;;;;;38.90;36.30;;;;;;;15.66;100.00;99258.70;1940929;74;32956;-72
2021/10/02 14:08:46;;;;;;;38.90;36.13;;;;;;;15.67;100.00;99225.31;1940846;74;33023;-72
2021/10/02 14:14:10;;;;;;;39.63;36.83;;;;;;;15.64;100.00;99233.84;1941211;74;33518;-73
2021/10/02 14:19:35;;;;;;;40.87;38.27;;;;;;;15.61;100.00;99217.78;1940929;74;33087;-73
2021/10/02 14:25:00;;;;;;;39.77;36.97;;;;;;;15.54;100.00;99201.36;1940946;74;33147;-74
2021/10/02 14:30:25;;;;;;;40.60;38.00;;;;;;;15.52;100.00;99202.32;1941092;74;33479;-71
2021/10/02 14:35:51;;;;;;;40.33;37.37;;;;;;;15.54;100.00;99187.38;1940918;74;32997;-73
2021/10/02 14:41:15;;;;;;;41.20;38.40;;;;;;;15.48;100.00;99179.23;1940865;74;33039;-71
2021/10/02 14:46:40;;;;;;;40.13;37.43;;;;;;;15.53;100.00;99152.19;1940845;74;33048;-72
2021/10/02 14:52:05;;;;;;;39.47;36.60;;;;;;;15.66;100.00;99139.13;1940905;74;32965;-71
2021/10/02 14:57:30;;;;;;;43.53;40.73;;;;;;;15.66;100.00;99112.54;1941083;74;33627;-73
2021/10/02 15:02:55;;;;;;;43.07;39.87;;;;;;;15.59;100.00;99100.36;1941123;74;33537;-74
2021/10/02 15:08:20;;;;;;;42.90;39.90;;;;;;;15.51;100.00;99076.17;1940904;74;32994;-74
2021/10/02 15:13:47;;;;;;;42.73;39.57;;;;;;;15.51;100.00;99068.59;1941053;74;33062;-74
2021/10/02 15:19:12;;;;;;;43.50;40.30;;;;;;;15.53;100.00;99052.84;1941289;74;33532;-77
2021/10/02 15:24:44;;;;;;;43.30;40.20;;;;;;;15.49;100.00;99049.32;1941073;74;32980;-77
2021/10/02 15:30:10;;;;;;;41.40;38.40;;;;;;;15.42;100.00;99034.35;1941202;74;33049;-76
2021/10/02 15:35:37;;;;;;;41.00;38.07;;;;;;;15.44;100.00;99012.44;1941109;74;33553;-75
2021/10/02 15:41:03;;;;;;;40.13;37.43;;;;;;;15.46;100.00;98975.91;1941104;74;33500;-72
2021/10/02 15:46:30;;;;;;;39.30;36.47;;;;;;;15.58;100.00;98937.81;1940841;74;33142;-73
2021/10/02 15:51:55;;;;;;;39.00;36.33;;;;;;;15.72;100.00;98908.76;1941341;74;33049;-72
2021/10/02 15:57:25;;;;;;;40.47;37.77;;;;;;;15.64;100.00;98879.00;1940881;74;32955;-74
2021/10/02 16:02:56;;;;;;;42.63;39.83;;;;;;;15.58;100.00;98853.28;1940911;74;33058;-71
2021/10/02 16:08:24;;;;;;;41.97;39.37;;;;;;;15.62;100.00;98830.38;1941091;74;32966;-70
2021/10/02 16:13:52;;;;;;;41.07;38.47;;;;;;;15.63;100.00;98793.42;1941312;74;33173;-78
2021/10/02 16:19:20;;;;;;;41.00;38.50;;;;;;;15.56;100.00;98754.92;1941131;74;33119;-71
2021/10/02 16:24:47;;;;;;;40.33;37.93;;;;;;;15.49;100.00;98723.36;1940885;74;32989;-71
2021/10/02 16:30:13;;;;;;;39.83;37.33;;;;;;;15.48;100.00;98690.99;1940881;74;32961;-74
2021/10/02 16:35:37;;;;;;;38.30;35.80;;;;;;;15.45;100.00;98649.75;1941178;74;33025;-75
2021/10/02 16:41:02;;;;;;;38.43;36.03;;;;;;;15.34;100.00;98631.97;1941408;74;32963;-77
2021/10/02 16:46:27;;;;;;;40.87;38.37;;;;;;;15.27;100.00;98610.87;1940901;74;32987;-72
2021/10/02 16:51:52;;;;;;;36.90;34.60;;;;;;;15.26;100.00;98593.05;1941048;74;33506;-74
2021/10/02 16:57:16;;;;;;;38.70;36.30;;;;;;;15.24;100.00;98577.22;1940856;74;33137;-72
2021/10/02 17:02:41;;;;;;;39.30;36.90;;;;;;;15.25;100.00;98559.27;1911904;71;33706;-71
2021/10/02 17:08:06;;;;;;;37.80;35.50;;;;;;;15.16;100.00;98557.30;1940955;74;33057;-71
2021/10/02 17:13:31;;;;;;;36.47;34.17;;;;;;;15.17;100.00;98540.16;1941177;74;33023;-82
2021/10/02 17:18:55;;;;;;;38.67;36.20;;;;;;;15.23;100.00;98544.86;1940973;74;33020;-72
2021/10/02 17:24:20;;;;;;;38.97;36.57;;;;;;;15.21;100.00;98534.03;1941119;74;33021;-72
2021/10/02 17:29:45;;;;;;;36.93;34.63;;;;;;;15.14;100.00;98506.55;1941013;74;33013;-72
2021/10/02 17:35:10;;;;;;;39.57;37.17;;;;;;;15.18;100.00;98493.44;1941090;74;32969;-76
2021/10/02 17:40:36;;;;;;;39.23;36.83;;;;;;;15.23;100.00;98494.53;1941016;74;33048;-78
2021/10/02 17:46:00;;;;;;;36.60;34.30;;;;;;;15.22;100.00;98483.92;1941024;74;32952;-74
2021/10/02 17:51:46;;;;;;;35.37;33.17;;;;;;;15.31;100.00;98487.28;2009620;71;32861;-79
2021/10/02 17:57:30;;;;;;;36.10;33.63;;;;;;;15.30;100.00;98474.47;2009596;71;32891;-73
2021/10/02 18:02:55;;;;;;;35.23;32.83;;;;;;;15.39;100.00;98475.02;1941034;74;33562;-76
2021/10/02 18:08:19;;;;;;;35.63;33.13;;;;;;;15.39;100.00;98475.61;1941173;74;33445;-74
2021/10/02 18:13:45;;;;;;;35.37;32.97;;;;;;;15.34;100.00;98473.12;1941272;74;32948;-76
2021/10/02 18:19:09;;;;;;;32.50;30.30;;;;;;;15.43;100.00;98503.05;1940942;74;33015;-72
2021/10/02 18:24:36;;;;;;;34.23;31.97;;;;;;;15.64;100.00;98504.82;1940948;74;32952;-76
2021/10/02 18:30:01;;;;;;;33.17;30.87;;;;;;;15.75;100.00;98523.16;1940908;74;32955;-77
2021/10/02 18:35:31;;;;;;;32.83;30.73;;;;;;;15.75;100.00;98530.16;1941283;74;33449;-72
2021/10/02 18:40:56;;;;;;;32.37;30.37;;;;;;;15.81;100.00;98548.27;1941026;74;33015;-72
2021/10/02 18:46:20;;;;;;;30.70;28.73;;;;;;;15.87;100.00;98543.97;1941100;74;32998;-71
2021/10/02 18:51:49;;;;;;;31.43;29.43;;;;;;;15.80;100.00;98566.23;1940815;74;33071;-74
2021/10/02 18:57:13;;;;;;;32.93;30.83;;;;;;;15.74;100.00;98572.77;1940906;74;33065;-83
2021/10/02 19:02:39;;;;;;;34.57;32.37;;;;;;;15.70;100.00;98618.05;1941106;74;33425;-76
2021/10/02 19:08:05;;;;;;;40.90;38.60;;;;;;;15.65;100.00;98659.55;1941064;74;33152;-71
2021/10/02 19:13:30;;;;;;;39.00;36.70;;;;;;;15.48;100.00;98692.39;1941150;74;33515;-72
2021/10/02 19:18:56;;;;;;;42.73;40.37;;;;;;;15.36;100.00;98714.13;1940987;74;33140;-80
2021/10/02 19:24:20;;;;;;;44.00;41.50;;;;;;;15.28;100.00;98717.34;1941178;74;33513;-76
2021/10/02 19:29:46;;;;;;;44.30;41.80;;;;;;;15.27;100.00;98741.50;1940923;74;32973;-72
2021/10/02 19:35:11;;;;;;;43.63;41.23;;;;;;;15.25;100.00;98768.42;1941019;74;33076;-74
2021/10/02 19:40:36;;;;;;;43.00;40.50;;;;;;;15.25;100.00;98785.20;1940952;74;32996;-76
2021/10/02 19:46:00;;;;;;;43.93;41.43;;;;;;;15.28;100.00;98793.44;1941184;74;33084;-75
2021/10/02 19:51:25;;;;;;;45.10;42.30;;;;;;;15.22;100.00;98808.32;1941524;74;32996;-78
2021/10/02 19:56:50;;;;;;;45.00;42.30;;;;;;;15.25;100.00;98830.54;1941142;74;33502;-80
2021/10/02 20:02:35;;;;;;;46.07;43.27;;;;;;;15.09;100.00;98853.55;2009844;71;32883;-81
2021/10/02 20:08:07;;;;;;;49.40;46.33;;;;;;;14.91;100.00;98859.52;1941415;74;33530;-77
2021/10/02 20:13:33;;;;;;;48.50;45.43;;;;;;;14.87;100.00;98880.17;1941361;74;33119;-83
2021/10/02 20:19:00;;;;;;;78.40;71.53;;;;;;;14.87;100.00;98895.55;1941246;74;33018;-80
2021/10/02 20:24:25;;;;;;;62.07;57.53;;;;;;;14.80;100.00;98910.16;1941109;74;33093;-80
2021/10/02 20:29:49;;;;;;;56.53;52.77;;;;;;;14.77;100.00;98907.25;1940973;74;33153;-84
2021/10/02 20:35:14;;;;;;;47.40;44.07;;;;;;;14.74;100.00;98947.92;1941099;74;32998;-84
2021/10/02 20:40:39;;;;;;;56.20;52.50;;;;;;;14.68;100.00;98959.13;1941477;74;33414;-82
2021/10/02 20:46:03;;;;;;;54.80;51.10;;;;;;;14.59;100.00;98970.47;1941465;74;32988;-81
2021/10/02 20:51:30;;;;;;;55.60;51.90;;;;;;;14.53;100.00;98950.96;1941450;74;33060;-82
2021/10/02 20:56:57;;;;;;;58.03;54.13;;;;;;;14.43;100.00;98959.84;1941124;74;33078;-83
2021/10/02 21:02:26;;;;;;;54.93;51.33;;;;;;;14.33;100.00;98985.48;1941030;74;33130;-84
2021/10/02 21:07:53;;;;;;;56.00;52.40;;;;;;;14.34;100.00;99005.82;1941030;74;32973;-78
2021/10/02 21:13:18;;;;;;;51.93;48.33;;;;;;;14.29;100.00;99001.91;1940993;74;33071;-71
2021/10/02 21:18:44;;;;;;;48.10;44.80;;;;;;;14.26;100.00;99010.97;1941066;74;33722;-72
2021/10/02 21:24:09;;;;;;;48.30;45.00;;;;;;;14.27;100.00;99019.59;1940918;74;33104;-74
2021/10/02 21:29:37;;;;;;;49.17;45.87;;;;;;;14.27;100.00;99048.91;1940866;74;32988;-74
2021/10/02 21:35:09;;;;;;;48.40;45.10;;;;;;;14.24;100.00;99061.61;1940903;74;32983;-72
2021/10/02 21:40:35;;;;;;;49.03;45.63;;;;;;;14.18;100.00;99052.42;1941359;74;33100;-79
2021/10/02 21:46:08;;;;;;;48.60;45.20;;;;;;;14.04;100.00;99050.82;1976915;72;32905;-81
2021/10/02 21:51:35;;;;;;;48.10;44.70;;;;;;;13.98;100.00;99083.53;1941133;74;33515;-72
2021/10/02 21:57:03;;;;;;;46.73;43.53;;;;;;;13.98;100.00;99083.53;1940840;74;32988;-81
2021/10/02 22:02:30;;;;;;;45.00;42.00;;;;;;;13.99;100.00;99092.92;1940982;74;32979;-73
2021/10/02 22:08:01;;;;;;;47.23;44.10;;;;;;;14.00;100.00;99088.98;1941234;74;33596;-72
2021/10/02 22:13:26;;;;;;;46.73;43.63;;;;;;;14.00;100.00;99103.52;1941067;74;33473;-72
2021/10/02 22:18:52;;;;;;;45.27;42.17;;;;;;;13.90;100.00;99115.17;1940899;74;33060;-81
2021/10/02 22:24:20;;;;;;;45.37;42.37;;;;;;;13.80;100.00;99124.00;1941089;74;33511;-81
2021/10/02 22:29:47;;;;;;;46.70;43.33;;;;;;;13.79;100.00;99118.17;1941068;74;33597;-81
2021/10/02 22:35:14;;;;;;;45.77;42.57;;;;;;;13.57;100.00;99103.52;1940859;74;32989;-81
2021/10/02 22:40:39;;;;;;;46.30;43.27;;;;;;;13.55;100.00;99123.17;1940845;74;32982;-73
2021/10/02 22:46:07;;;;;;;47.27;44.03;;;;;;;13.45;100.00;99127.80;1940906;74;33033;-81
2021/10/02 22:51:38;;;;;;;47.87;44.47;;;;;;;13.50;100.00;99138.16;1940904;74;32997;-81
2021/10/02 22:57:03;;;;;;;46.60;43.40;;;;;;;13.48;100.00;99152.20;1941072;74;32974;-73
2021/10/02 23:02:28;;;;;;;46.93;43.63;;;;;;;13.45;100.00;99154.29;1941097;74;33109;-81
2021/10/02 23:07:53;;;;;;;45.87;42.67;;;;;;;13.43;100.00;99161.63;1940904;74;32979;-72
2021/10/02 23:13:19;;;;;;;46.00;42.60;;;;;;;13.45;100.00;99169.63;1941066;74;33445;-72
2021/10/02 23:18:51;;;;;;;47.40;44.00;;;;;;;13.44;100.00;99178.57;1941185;74;32981;-80
2021/10/02 23:24:20;;;;;;;45.00;41.80;;;;;;;13.46;100.00;99174.88;1941283;74;33483;-70
2021/10/02 23:32:37;;;;;;;48.23;45.03;;;;;;;13.45;100.00;99193.34;2061137;69;32633;-72
2021/10/02 23:35:11;;;;;;;47.30;44.00;;;;;;;13.39;100.00;99201.09;1950672;73;26233;-72
2021/10/02 23:37:42;;;;;;;45.23;42.03;;;;;;;13.37;100.00;99202.03;2030679;71;26173;-72
2021/10/02 23:40:16;;;;;;;46.07;43.00;;;;;;;13.35;100.00;99214.70;2030486;71;26703;-72
2021/10/02 23:42:46;;;;;;;46.60;43.50;;;;;;;13.35;100.00;99213.31;2030519;71;26173;-72
2021/10/02 23:45:17;;;;;;;45.37;42.20;;;;;;;13.34;100.00;99214.46;2030530;70;26162;-81
2021/10/02 23:47:47;;;;;;;45.70;42.50;;;;;;;13.33;100.00;99217.83;2030626;71;26157;-81
2021/10/02 23:50:17;;;;;;;47.37;44.10;;;;;;;13.32;100.00;99207.82;2030592;71;26166;-72
2021/10/02 23:52:51;;;;;;;45.83;42.60;;;;;;;13.34;100.00;99216.67;2030559;71;26227;-80
2021/10/02 23:55:23;;;;;;;46.03;42.83;;;;;;;13.30;100.00;99224.67;2030511;71;26223;-80
2021/10/02 23:57:56;;;;;;;45.53;42.40;;;;;;;13.26;100.00;99230.70;2030728;71;26263;-72
